Time;durP1;ratioP1;P1;durP2;ratioP2;P2;SDS_P1;SDS_P2;PMS_P1;PMS_P2;Temp;Humidity;BMP_temperature;BMP_pressure;BME280_temperature;BME280_humidity;BME280_pressure;Samples;Min_cycle;Max_cycle;Signal;HPM_P1;HPM_P2
2023/04/20 00:01:21;;;;;;;5.53;2.42;;;5.90;85.30;;;;;;5008065;28;20052;-74
2023/04/20 00:03:47;;;;;;;4.72;2.35;;;5.80;83.80;;;;;;5003830;28;20022;-75
2023/04/20 00:06:14;;;;;;;7.43;2.38;;;5.80;85.50;;;;;;5021540;28;20124;-75
2023/04/20 00:08:39;;;;;;;4.35;2.20;;;5.80;85.50;;;;;;5002492;28;20026;-75
2023/04/20 00:11:05;;;;;;;4.32;2.30;;;5.80;85.00;;;;;;5006837;28;20094;-75
2023/04/20 00:13:30;;;;;;;4.95;2.33;;;5.80;86.00;;;;;;5003198;28;20051;-75
2023/04/20 00:15:56;;;;;;;8.38;2.67;;;5.80;85.40;;;;;;5006234;28;20034;-75
2023/04/20 00:18:21;;;;;;;5.75;2.53;;;5.80;84.40;;;;;;4999807;28;20030;-75
2023/04/20 00:20:47;;;;;;;5.82;2.30;;;5.80;85.00;;;;;;5000764;28;20041;-75
2023/04/20 00:23:12;;;;;;;5.60;2.85;;;5.80;85.10;;;;;;5001351;28;20072;-74
2023/04/20 00:25:38;;;;;;;4.90;2.50;;;5.90;86.00;;;;;;5008283;28;20543;-75
2023/04/20 00:28:03;;;;;;;5.18;2.20;;;5.90;83.90;;;;;;5011352;28;20097;-74
2023/04/20 00:30:29;;;;;;;6.13;2.80;;;5.90;85.60;;;;;;5002339;28;20074;-75
2023/04/20 00:32:54;;;;;;;7.13;2.13;;;5.90;85.70;;;;;;4999474;28;20200;-75
2023/04/20 00:35:20;;;;;;;5.35;2.45;;;5.90;85.20;;;;;;4999488;28;20029;-74
2023/04/20 00:37:45;;;;;;;9.13;3.08;;;5.90;84.60;;;;;;4992509;28;20034;-74
2023/04/20 00:40:11;;;;;;;3.78;2.28;;;5.80;84.90;;;;;;5001341;28;20594;-74
2023/04/20 00:42:39;;;;;;;6.00;2.45;;;5.90;84.90;;;;;;4995688;28;20076;-75
2023/04/20 00:45:05;;;;;;;6.75;2.25;;;5.90;85.00;;;;;;5000185;28;20026;-74
2023/04/20 00:47:30;;;;;;;4.85;2.25;;;6.00;84.10;;;;;;4998792;28;20026;-75
2023/04/20 00:49:56;;;;;;;6.55;2.45;;;6.00;83.60;;;;;;4997009;28;20169;-76
2023/04/20 00:52:22;;;;;;;4.60;2.20;;;6.00;84.60;;;;;;5000626;28;20053;-75
2023/04/20 00:54:47;;;;;;;8.45;2.17;;;6.00;83.40;;;;;;5003344;28;20030;-74
2023/04/20 00:57:13;;;;;;;5.30;2.33;;;6.00;84.40;;;;;;5002956;28;20064;-74
2023/04/20 00:59:42;;;;;;;6.22;2.50;;;6.00;85.30;;;;;;4995539;28;20030;-74
2023/04/20 01:02:07;;;;;;;5.78;2.17;;;6.00;85.00;;;;;;4996791;28;20089;-75
2023/04/20 01:04:35;;;;;;;5.65;2.13;;;6.00;85.60;;;;;;4998322;28;20101;-74
2023/04/20 01:07:01;;;;;;;5.45;2.28;;;6.00;85.80;;;;;;4997750;28;20018;-74
2023/04/20 01:09:27;;;;;;;6.70;2.22;;;6.00;85.60;;;;;;5017363;28;20029;-76
2023/04/20 01:11:52;;;;;;;6.10;2.47;;;6.10;86.00;;;;;;5009676;28;20022;-74
2023/04/20 01:14:18;;;;;;;5.70;2.33;;;6.00;85.60;;;;;;5010872;28;20038;-74
2023/04/20 01:16:46;;;;;;;5.55;2.47;;;6.00;84.80;;;;;;5001335;28;20029;-74
2023/04/20 01:19:11;;;;;;;7.13;2.33;;;6.00;84.10;;;;;;5003754;28;20033;-75
2023/04/20 01:21:37;;;;;;;11.52;2.20;;;6.00;84.50;;;;;;5000227;28;20042;-74
2023/04/20 01:24:03;;;;;;;6.20;2.38;;;6.00;83.90;;;;;;5016814;28;20034;-75
2023/04/20 01:26:28;;;;;;;6.60;2.08;;;6.00;84.80;;;;;;5001248;28;20101;-74
2023/04/20 01:28:54;;;;;;;4.45;2.30;;;6.00;85.60;;;;;;5006306;28;20037;-74
2023/04/20 01:31:19;;;;;;;8.32;2.60;;;6.00;85.60;;;;;;5008217;28;20109;-73
2023/04/20 01:33:45;;;;;;;7.18;2.25;;;5.90;85.80;;;;;;5010193;28;20026;-74
2023/04/20 01:36:11;;;;;;;6.43;2.60;;;5.80;87.10;;;;;;4991039;28;20029;-74
2023/04/20 01:38:37;;;;;;;6.50;2.53;;;5.80;87.50;;;;;;5002465;28;20022;-74
2023/04/20 01:41:04;;;;;;;5.60;2.40;;;5.80;88.30;;;;;;5003908;28;20425;-74
2023/04/20 01:43:30;;;;;;;8.88;2.22;;;5.70;88.20;;;;;;5004878;28;20049;-74
2023/04/20 01:45:55;;;;;;;6.18;2.67;;;5.60;88.60;;;;;;5002136;28;20026;-74
2023/04/20 01:48:21;;;;;;;7.25;3.03;;;5.60;88.80;;;;;;5004996;28;20454;-74
2023/04/20 01:50:50;;;;;;;5.40;2.78;;;5.60;89.20;;;;;;5000951;28;20435;-74
2023/04/20 01:53:16;;;;;;;7.75;2.92;;;5.60;89.50;;;;;;5010964;28;20025;-74
2023/04/20 01:55:41;;;;;;;8.13;2.97;;;5.60;88.90;;;;;;5004593;28;20476;-75
2023/04/20 01:58:07;;;;;;;7.97;2.95;;;5.50;88.20;;;;;;5006463;28;20068;-74
2023/04/20 02:00:32;;;;;;;7.72;2.80;;;5.50;88.50;;;;;;5003960;28;20058;-74
2023/04/20 02:02:58;;;;;;;5.47;2.45;;;5.50;89.00;;;;;;5007055;28;20136;-74
2023/04/20 02:05:23;;;;;;;7.97;3.13;;;5.50;89.70;;;;;;5005413;28;20458;-74
2023/04/20 02:07:50;;;;;;;5.20;2.80;;;5.50;89.70;;;;;;5004949;28;20028;-74
2023/04/20 02:10:15;;;;;;;7.20;2.90;;;5.60;90.00;;;;;;4999421;28;20061;-74
2023/04/20 02:12:41;;;;;;;7.20;2.85;;;5.50;89.50;;;;;;5000231;28;20455;-74
2023/04/20 02:15:08;;;;;;;7.03;2.75;;;5.40;89.70;;;;;;5004781;28;20099;-74
2023/04/20 02:17:35;;;;;;;7.15;3.08;;;5.40;89.60;;;;;;5003393;28;20038;-74
2023/04/20 02:20:01;;;;;;;6.30;3.00;;;5.40;89.60;;;;;;5006439;28;20505;-74
2023/04/20 02:22:26;;;;;;;8.70;3.20;;;5.40;89.40;;;;;;5006791;28;20125;-74
2023/04/20 02:24:52;;;;;;;10.25;3.35;;;5.40;89.50;;;;;;4996285;28;20062;-74
2023/04/20 02:27:17;;;;;;;7.30;3.25;;;5.40;89.80;;;;;;4999548;28;20117;-74
2023/04/20 02:29:43;;;;;;;4.53;2.58;;;5.40;89.70;;;;;;5004291;28;20080;-75
2023/04/20 02:32:08;;;;;;;6.82;3.20;;;5.50;89.70;;;;;;5002570;28;20386;-73
2023/04/20 02:34:34;;;;;;;8.40;3.28;;;5.50;89.40;;;;;;5005230;28;20026;-75
2023/04/20 02:36:59;;;;;;;7.65;2.72;;;5.50;89.50;;;;;;4998874;28;20478;-74
2023/04/20 02:39:25;;;;;;;8.98;2.97;;;5.60;89.80;;;;;;5002248;28;20117;-74
2023/04/20 02:41:50;;;;;;;8.85;3.30;;;5.50;89.00;;;;;;5001836;28;20557;-74
2023/04/20 02:44:16;;;;;;;7.47;3.42;;;5.60;89.00;;;;;;5002938;28;20041;-74
2023/04/20 02:46:41;;;;;;;5.88;3.17;;;5.60;89.50;;;;;;5001767;28;20149;-74
2023/04/20 02:49:07;;;;;;;8.38;3.25;;;5.60;89.70;;;;;;4996949;28;20097;-76
2023/04/20 02:51:32;;;;;;;11.23;3.35;;;5.60;89.30;;;;;;4999874;28;20056;-75
2023/04/20 02:53:58;;;;;;;8.68;3.17;;;5.60;89.00;;;;;;5001840;28;20141;-74
2023/04/20 02:56:23;;;;;;;7.55;2.95;;;5.60;89.40;;;;;;5005685;28;20376;-74
2023/04/20 02:58:50;;;;;;;11.60;3.92;;;5.70;89.40;;;;;;5004026;28;20069;-75
2023/04/20 03:01:16;;;;;;;5.85;2.78;;;5.70;89.50;;;;;;4999707;28;20040;-74
2023/04/20 03:03:42;;;;;;;11.52;3.30;;;5.70;89.60;;;;;;5005338;28;20026;-74
2023/04/20 03:06:07;;;;;;;7.70;3.05;;;5.60;89.10;;;;;;5010460;28;20038;-74
2023/04/20 03:08:33;;;;;;;6.68;2.97;;;5.70;88.60;;;;;;5006114;28;20037;-74
2023/04/20 03:10:58;;;;;;;7.45;3.10;;;5.70;89.10;;;;;;5016312;28;20410;-74
2023/04/20 03:13:24;;;;;;;5.57;2.88;;;5.80;89.40;;;;;;5018125;28;20068;-75
2023/04/20 03:15:49;;;;;;;9.30;3.42;;;5.70;89.00;;;;;;5015828;28;20105;-75
2023/04/20 03:18:14;;;;;;;9.13;3.85;;;5.80;89.40;;;;;;5012908;28;20104;-74
2023/04/20 03:20:40;;;;;;;7.00;3.60;;;5.80;89.70;;;;;;5012939;28;20104;-76
2023/04/20 03:23:06;;;;;;;11.95;3.78;;;5.80;89.30;;;;;;5002542;28;20379;-74
2023/04/20 03:25:31;;;;;;;11.48;3.60;;;5.70;89.60;;;;;;5002216;28;20058;-74
2023/04/20 03:27:58;;;;;;;8.50;3.25;;;5.80;89.60;;;;;;5001331;28;20470;-74
2023/04/20 03:30:23;;;;;;;9.25;3.50;;;5.70;90.10;;;;;;5019137;28;20415;-74
2023/04/20 03:32:50;;;;;;;8.88;3.22;;;5.70;90.30;;;;;;5000978;28;20425;-75
2023/04/20 03:35:16;;;;;;;7.85;3.33;;;5.70;90.70;;;;;;5002996;28;20041;-74
2023/04/20 03:37:42;;;;;;;7.07;3.28;;;5.80;91.30;;;;;;5000867;28;20022;-74
2023/04/20 03:40:08;;;;;;;8.20;3.40;;;5.70;91.60;;;;;;4999817;28;20077;-74
2023/04/20 03:42:33;;;;;;;7.55;3.40;;;5.70;91.50;;;;;;5005820;28;20033;-72
2023/04/20 03:44:59;;;;;;;8.32;3.90;;;5.60;92.00;;;;;;5000594;28;20030;-74
2023/04/20 03:47:24;;;;;;;8.85;3.47;;;5.70;92.60;;;;;;5002194;28;20477;-74
2023/04/20 03:49:50;;;;;;;10.27;3.60;;;5.60;92.60;;;;;;4999057;28;20148;-74
2023/04/20 03:52:15;;;;;;;10.45;3.72;;;5.50;92.80;;;;;;5003753;28;20674;-74
2023/04/20 03:54:41;;;;;;;7.45;3.58;;;5.50;93.00;;;;;;4996056;28;20125;-75
2023/04/20 03:57:06;;;;;;;11.95;4.90;;;5.50;93.20;;;;;;5005185;28;20434;-74
2023/04/20 03:59:32;;;;;;;20.58;6.20;;;5.50;93.20;;;;;;5007603;28;20121;-74
2023/04/20 04:01:58;;;;;;;22.08;7.20;;;5.50;93.30;;;;;;5001550;28;20173;-74
2023/04/20 04:04:24;;;;;;;15.63;5.10;;;5.40;93.10;;;;;;5004264;28;20048;-75
2023/04/20 04:06:50;;;;;;;10.82;4.63;;;5.30;92.90;;;;;;4999384;28;20491;-74
2023/04/20 04:09:15;;;;;;;13.73;5.30;;;5.40;93.00;;;;;;5001983;28;20091;-74
2023/04/20 04:11:41;;;;;;;15.35;5.40;;;5.30;93.00;;;;;;5002418;28;20118;-74
2023/04/20 04:14:06;;;;;;;9.68;4.90;;;5.30;93.10;;;;;;5003266;28;20073;-74
2023/04/20 04:16:32;;;;;;;8.30;3.80;;;5.30;93.10;;;;;;5002235;28;20070;-76
2023/04/20 04:18:58;;;;;;;8.45;3.88;;;5.30;92.90;;;;;;5004703;28;20504;-75
2023/04/20 04:21:23;;;;;;;9.70;3.67;;;5.30;92.90;;;;;;5000285;28;20041;-75
2023/04/20 04:23:49;;;;;;;11.93;3.65;;;5.30;92.90;;;;;;5000957;28;21065;-76
2023/04/20 04:26:16;;;;;;;19.13;4.50;;;5.20;92.80;;;;;;5000751;28;20513;-73
2023/04/20 04:28:44;;;;;;;10.65;4.07;;;5.20;92.90;;;;;;4995931;28;20075;-77
2023/04/20 04:31:11;;;;;;;13.20;4.28;;;5.30;93.10;;;;;;5001305;28;20037;-77
2023/04/20 04:33:36;;;;;;;10.57;4.75;;;5.30;93.20;;;;;;5021658;28;20078;-76
2023/04/20 04:36:02;;;;;;;12.25;4.25;;;5.30;93.30;;;;;;5029864;28;20037;-76
2023/04/20 04:38:28;;;;;;;11.75;4.55;;;5.30;93.20;;;;;;5009263;28;20026;-77
2023/04/20 04:40:55;;;;;;;8.63;4.25;;;5.40;93.50;;;;;;5003354;28;20069;-76
2023/04/20 04:43:20;;;;;;;9.02;4.38;;;5.40;93.60;;;;;;5006686;28;20025;-76
2023/04/20 04:45:46;;;;;;;11.45;4.57;;;5.40;93.70;;;;;;5008594;28;20086;-76
2023/04/20 04:48:12;;;;;;;13.05;5.45;;;5.40;93.90;;;;;;5011692;28;20450;-75
2023/04/20 04:50:38;;;;;;;13.02;4.60;;;5.40;93.80;;;;;;5005220;28;20057;-76
2023/04/20 04:53:04;;;;;;;10.52;4.47;;;5.50;93.80;;;;;;5003803;28;20315;-77
2023/04/20 04:55:29;;;;;;;8.88;4.60;;;5.50;93.90;;;;;;4997738;28;20084;-77
2023/04/20 04:57:56;;;;;;;13.02;4.20;;;5.50;93.90;;;;;;4998231;28;20136;-74
2023/04/20 05:00:21;;;;;;;13.00;4.55;;;5.50;94.00;;;;;;4998495;28;20072;-75
2023/04/20 05:02:47;;;;;;;14.43;5.05;;;5.50;93.80;;;;;;5000747;28;20038;-75
2023/04/20 05:05:12;;;;;;;11.10;4.85;;;5.50;93.70;;;;;;5002445;28;20088;-75
2023/04/20 05:07:38;;;;;;;15.85;4.80;;;5.40;93.60;;;;;;5000526;28;20477;-75
2023/04/20 05:10:05;;;;;;;12.88;4.38;;;5.40;93.50;;;;;;5004601;28;20113;-75
2023/04/20 05:12:31;;;;;;;12.00;4.15;;;5.50;93.50;;;;;;5004631;28;20073;-77
2023/04/20 05:14:57;;;;;;;10.80;4.30;;;5.50;93.40;;;;;;5009808;28;20428;-77
2023/04/20 05:17:22;;;;;;;11.07;4.32;;;5.50;93.60;;;;;;4995504;28;20026;-73
2023/04/20 05:19:48;;;;;;;10.63;4.65;;;5.60;93.90;;;;;;5002507;28;20040;-76
2023/04/20 05:22:13;;;;;;;9.70;4.05;;;5.60;94.00;;;;;;4996502;28;20025;-76
2023/04/20 05:24:39;;;;;;;13.55;5.25;;;5.60;94.00;;;;;;5010191;28;20038;-78
2023/04/20 05:27:04;;;;;;;9.75;4.80;;;5.60;93.90;;;;;;5005936;28;20168;-75
2023/04/20 05:29:31;;;;;;;11.98;4.32;;;5.70;94.10;;;;;;5004869;28;20155;-75
2023/04/20 05:31:56;;;;;;;6.95;4.70;;;5.70;93.90;;;;;;5000989;28;20446;-76
2023/04/20 05:34:22;;;;;;;12.05;4.68;;;5.70;94.00;;;;;;5017967;28;20033;-76
2023/04/20 05:36:47;;;;;;;15.10;4.60;;;5.80;93.90;;;;;;4995366;28;20120;-76
2023/04/20 05:39:13;;;;;;;12.05;4.80;;;5.80;93.80;;;;;;5002678;28;20716;-75
2023/04/20 05:41:38;;;;;;;10.25;4.97;;;5.80;93.90;;;;;;5001953;28;20108;-79
2023/04/20 05:44:04;;;;;;;11.68;5.07;;;5.70;93.60;;;;;;5009693;28;20402;-77
2023/04/20 05:46:30;;;;;;;13.40;5.78;;;5.80;93.90;;;;;;5008289;28;20093;-79
2023/04/20 05:48:55;;;;;;;13.90;5.40;;;5.80;94.10;;;;;;5012889;28;20490;-76
2023/04/20 05:51:21;;;;;;;12.15;5.22;;;5.80;93.90;;;;;;5014657;28;20045;-77
2023/04/20 05:53:47;;;;;;;11.48;5.20;;;5.80;93.80;;;;;;5013647;28;20101;-75
2023/04/20 05:56:13;;;;;;;9.48;4.82;;;5.80;93.70;;;;;;5015475;28;20045;-76
2023/04/20 05:58:39;;;;;;;10.52;5.00;;;5.80;93.70;;;;;;5009473;28;20020;-75
2023/04/20 06:01:06;;;;;;;12.13;5.55;;;5.80;93.90;;;;;;5018551;28;20046;-76
2023/04/20 06:03:31;;;;;;;15.75;5.43;;;5.80;93.90;;;;;;5022713;28;20034;-76
2023/04/20 06:05:57;;;;;;;13.05;5.28;;;5.80;93.90;;;;;;5024104;28;20038;-76
2023/04/20 06:08:22;;;;;;;13.68;5.65;;;5.80;93.70;;;;;;5021956;28;20032;-76
2023/04/20 06:10:48;;;;;;;12.00;5.50;;;5.80;93.90;;;;;;5011440;28;20041;-71
2023/04/20 06:13:13;;;;;;;15.40;5.15;;;5.80;94.00;;;;;;5013144;28;20042;-77
2023/04/20 06:15:38;;;;;;;12.68;5.82;;;5.80;94.20;;;;;;5009435;28;20662;-78
2023/04/20 06:18:04;;;;;;;9.70;5.13;;;5.90;94.20;;;;;;5022403;28;20051;-76
2023/04/20 06:20:30;;;;;;;16.08;5.50;;;5.90;94.10;;;;;;5031485;28;20089;-76
2023/04/20 06:22:55;;;;;;;10.35;5.68;;;6.10;94.20;;;;;;5015864;28;20025;-76
2023/04/20 06:25:21;;;;;;;15.77;6.18;;;6.10;94.00;;;;;;5024242;28;20041;-76
2023/04/20 06:27:46;;;;;;;13.38;5.88;;;6.10;94.00;;;;;;5018952;28;20018;-79
2023/04/20 06:30:12;;;;;;;12.90;5.88;;;6.10;94.10;;;;;;5020045;28;20192;-78
2023/04/20 06:32:38;;;;;;;11.82;5.47;;;6.20;93.70;;;;;;5024986;28;20057;-76
2023/04/20 06:35:04;;;;;;;15.20;6.10;;;6.30;93.90;;;;;;5021020;28;20359;-77
2023/04/20 06:37:30;;;;;;;10.38;5.13;;;6.30;93.70;;;;;;5016875;28;20061;-77
2023/04/20 06:39:55;;;;;;;11.35;5.28;;;6.20;93.60;;;;;;5018097;28;20086;-78
2023/04/20 06:42:21;;;;;;;12.00;5.35;;;6.20;93.50;;;;;;5018605;28;20387;-76
2023/04/20 06:44:47;;;;;;;12.45;5.60;;;6.30;93.70;;;;;;5016401;28;20025;-76
2023/04/20 06:47:12;;;;;;;19.33;6.47;;;6.20;93.40;;;;;;5007249;28;20041;-77
2023/04/20 06:49:38;;;;;;;10.40;4.88;;;6.30;93.60;;;;;;5012656;28;20036;-76
2023/04/20 06:52:04;;;;;;;11.60;5.40;;;6.30;93.20;;;;;;5018490;28;20113;-79
2023/04/20 06:54:31;;;;;;;9.90;5.00;;;6.30;93.50;;;;;;5008990;28;20022;-77
2023/04/20 06:56:56;;;;;;;12.48;5.43;;;6.20;93.60;;;;;;5019648;28;20026;-75
2023/04/20 06:59:22;;;;;;;13.57;5.35;;;6.40;93.60;;;;;;5020206;28;20037;-76
2023/04/20 07:01:47;;;;;;;9.90;5.18;;;6.50;93.70;;;;;;5012266;28;20363;-77
2023/04/20 07:04:13;;;;;;;15.07;5.00;;;6.40;93.60;;;;;;5017067;28;20073;-76
2023/04/20 07:06:38;;;;;;;12.63;5.50;;;6.40;93.30;;;;;;5019157;28;20029;-76
2023/04/20 07:09:04;;;;;;;10.80;5.45;;;6.40;93.50;;;;;;5014347;28;20087;-77
2023/04/20 07:11:29;;;;;;;12.93;5.60;;;6.50;93.60;;;;;;5018772;28;20037;-77
2023/04/20 07:13:55;;;;;;;11.18;5.72;;;6.60;93.80;;;;;;5008220;28;20181;-78
2023/04/20 07:16:20;;;;;;;10.25;5.10;;;6.70;93.70;;;;;;5006623;28;20450;-77
2023/04/20 07:18:46;;;;;;;8.05;4.90;;;6.70;93.30;;;;;;5001832;28;20156;-78
2023/04/20 07:21:12;;;;;;;9.63;4.70;;;6.80;93.60;;;;;;5000841;28;20041;-77
2023/04/20 07:23:37;;;;;;;13.85;5.40;;;6.70;93.10;;;;;;5004139;28;20441;-77
2023/04/20 07:26:03;;;;;;;10.98;4.78;;;6.80;93.60;;;;;;4997017;28;20121;-78
2023/04/20 07:28:28;;;;;;;10.00;5.00;;;6.80;93.40;;;;;;4997495;28;20453;-77
2023/04/20 07:30:54;;;;;;;11.80;5.22;;;6.70;93.10;;;;;;4994402;28;20034;-77
2023/04/20 07:33:20;;;;;;;11.52;4.82;;;6.80;93.50;;;;;;5007220;28;20148;-77
2023/04/20 07:35:45;;;;;;;12.45;4.97;;;6.70;93.10;;;;;;5003530;28;20091;-76
2023/04/20 07:38:11;;;;;;;11.07;5.10;;;6.80;93.10;;;;;;5003618;28;20123;-75
2023/04/20 07:40:36;;;;;;;14.10;5.18;;;6.80;93.10;;;;;;5002744;28;20514;-76
2023/04/20 07:43:02;;;;;;;7.50;4.50;;;6.80;93.00;;;;;;5015512;28;20038;-75
2023/04/20 07:45:27;;;;;;;9.45;4.68;;;6.60;93.00;;;;;;5010734;28;20034;-78
2023/04/20 07:47:54;;;;;;;9.63;4.80;;;6.60;93.30;;;;;;5020527;28;20030;-77
2023/04/20 07:50:20;;;;;;;11.75;5.20;;;6.70;93.50;;;;;;5017933;28;20033;-76
2023/04/20 07:52:45;;;;;;;14.20;5.53;;;6.80;93.50;;;;;;5013543;28;20029;-76
2023/04/20 07:55:13;;;;;;;14.10;5.50;;;6.90;93.40;;;;;;5012889;28;20085;-79
2023/04/20 07:57:38;;;;;;;14.45;5.38;;;6.80;93.20;;;;;;5025964;28;20502;-78
2023/04/20 08:00:06;;;;;;;10.68;5.07;;;6.80;93.00;;;;;;5024621;28;20022;-79
2023/04/20 08:02:31;;;;;;;9.57;4.85;;;6.70;93.20;;;;;;5022885;28;20018;-79
2023/04/20 08:04:57;;;;;;;9.00;5.30;;;6.80;93.40;;;;;;5020164;28;20034;-76
2023/04/20 08:07:22;;;;;;;11.70;4.90;;;6.80;93.20;;;;;;5024079;28;20117;-76
2023/04/20 08:09:48;;;;;;;10.45;5.03;;;6.70;93.20;;;;;;5012997;28;20027;-76
2023/04/20 08:12:14;;;;;;;12.32;5.10;;;6.80;93.50;;;;;;5015088;28;20030;-77
2023/04/20 08:14:40;;;;;;;10.73;5.68;;;6.60;93.50;;;;;;5017350;28;20085;-77
2023/04/20 08:17:06;;;;;;;12.88;5.30;;;6.70;93.80;;;;;;5022632;28;20091;-76
2023/04/20 08:19:32;;;;;;;13.82;5.45;;;6.80;93.70;;;;;;5016236;28;20097;-78
2023/04/20 08:21:57;;;;;;;8.35;5.22;;;6.80;93.60;;;;;;5018438;28;20136;-77
2023/04/20 08:24:23;;;;;;;12.68;5.65;;;6.80;93.70;;;;;;5019313;28;20044;-79
2023/04/20 08:26:48;;;;;;;13.35;5.28;;;6.90;93.70;;;;;;5015598;28;20116;-76
2023/04/20 08:29:14;;;;;;;11.95;5.68;;;6.90;93.60;;;;;;5019516;28;20062;-77
2023/04/20 08:31:40;;;;;;;8.95;5.50;;;6.80;93.70;;;;;;5016987;28;20010;-76
2023/04/20 08:34:05;;;;;;;12.82;5.40;;;6.80;93.50;;;;;;5018249;28;20029;-76
2023/04/20 08:36:31;;;;;;;13.38;6.00;;;6.80;93.60;;;;;;5018783;28;20089;-77
2023/04/20 08:39:08;;;;;;;9.68;5.10;;;6.80;93.70;;;;;;5017914;28;20101;-79
2023/04/20 08:41:34;;;;;;;11.65;5.68;;;6.90;93.90;;;;;;5024483;28;20066;-77
2023/04/20 08:43:59;;;;;;;12.57;5.72;;;6.80;93.50;;;;;;5019619;28;20026;-78
2023/04/20 08:46:25;;;;;;;13.38;6.00;;;6.90;93.80;;;;;;5021204;28;20072;-79
2023/04/20 08:48:54;;;;;;;11.43;5.88;;;6.90;93.70;;;;;;5028014;28;20091;-79
2023/04/20 08:51:20;;;;;;;10.75;5.70;;;6.90;93.70;;;;;;5019225;28;20097;-77
2023/04/20 08:53:46;;;;;;;11.40;6.40;;;7.00;93.70;;;;;;5022196;28;20078;-78
2023/04/20 08:56:12;;;;;;;10.98;5.63;;;6.90;93.40;;;;;;5017145;28;20026;-76
2023/04/20 08:58:41;;;;;;;13.38;6.05;;;6.90;93.40;;;;;;5019327;28;20025;-76
2023/04/20 09:01:07;;;;;;;11.52;5.20;;;7.00;93.60;;;;;;5015491;28;20049;-77
2023/04/20 09:03:38;;;;;;;12.98;5.95;;;6.90;93.70;;;;;;5021255;28;20033;-76
2023/04/20 09:06:05;;;;;;;12.55;6.18;;;6.80;93.60;;;;;;5019655;28;20030;-79
2023/04/20 09:08:39;;;;;;;13.45;6.43;;;6.80;93.80;;;;;;5012646;28;20046;-79
2023/04/20 09:11:05;;;;;;;16.85;6.43;;;6.80;93.90;;;;;;5005176;28;20160;-76
2023/04/20 09:13:35;;;;;;;12.30;6.28;;;6.90;94.00;;;;;;4999227;28;20037;-76
2023/04/20 09:16:11;;;;;;;12.52;6.18;;;7.00;94.10;;;;;;5007551;28;20272;-78
2023/04/20 09:18:37;;;;;;;11.88;6.40;;;7.10;94.10;;;;;;4983698;28;20029;-76
2023/04/20 09:21:07;;;;;;;14.40;6.45;;;7.20;93.90;;;;;;5005995;28;20022;-77
2023/04/20 09:23:33;;;;;;;11.63;5.90;;;7.20;93.30;;;;;;5006282;28;20492;-77
2023/04/20 09:25:58;;;;;;;9.77;5.93;;;7.40;93.50;;;;;;5012653;28;20034;-78
2023/04/20 09:28:37;;;;;;;9.32;5.60;;;7.50;93.30;;;;;;5010065;28;20041;-77
2023/04/20 09:31:03;;;;;;;10.20;5.55;;;7.50;92.80;;;;;;5010695;28;20085;-77
2023/04/20 09:33:28;;;;;;;12.20;5.28;;;7.50;92.80;;;;;;5012384;28;20121;-78
2023/04/20 09:36:03;;;;;;;11.70;5.20;;;7.70;92.80;;;;;;5021000;28;20043;-78
2023/04/20 09:38:29;;;;;;;9.82;4.65;;;7.70;92.80;;;;;;5019909;28;20171;-78
2023/04/20 09:40:59;;;;;;;10.95;5.78;;;7.70;92.60;;;;;;5027171;28;20022;-77
2023/04/20 09:43:27;;;;;;;13.05;5.72;;;7.80;92.50;;;;;;5012930;28;20065;-78
2023/04/20 09:45:54;;;;;;;10.10;4.80;;;7.70;92.40;;;;;;5010161;28;20072;-78
2023/04/20 09:48:20;;;;;;;10.43;4.90;;;7.60;92.20;;;;;;5006737;28;20025;-77
2023/04/20 09:50:47;;;;;;;12.85;5.72;;;7.70;92.20;;;;;;5012710;28;20316;-77
2023/04/20 09:53:15;;;;;;;15.80;5.38;;;7.80;92.30;;;;;;5014987;28;20034;-80
2023/04/20 09:55:46;;;;;;;10.13;5.45;;;7.90;92.20;;;;;;5019252;28;20041;-79
2023/04/20 09:58:12;;;;;;;11.88;6.35;;;7.90;92.30;;;;;;5014454;28;20068;-78
2023/04/20 10:00:37;;;;;;;11.40;5.82;;;8.10;92.20;;;;;;5016888;28;20220;-77
2023/04/20 10:03:03;;;;;;;9.85;5.88;;;8.10;92.10;;;;;;5010088;28;20640;-77
2023/04/20 10:05:34;;;;;;;12.27;6.13;;;7.80;91.70;;;;;;5014598;28;20419;-77
2023/04/20 10:08:00;;;;;;;13.05;6.00;;;7.80;92.00;;;;;;5015612;28;20025;-79
2023/04/20 10:10:26;;;;;;;13.25;6.18;;;7.80;91.90;;;;;;5018824;28;20088;-77
2023/04/20 10:12:58;;;;;;;12.63;5.90;;;7.80;91.90;;;;;;5017707;28;20030;-77
2023/04/20 10:15:34;;;;;;;11.82;5.82;;;7.90;91.90;;;;;;5009940;28;20057;-77
2023/04/20 10:18:00;;;;;;;12.57;6.60;;;8.00;92.20;;;;;;5017551;28;20026;-77
2023/04/20 10:20:27;;;;;;;11.25;6.72;;;8.10;91.50;;;;;;5023043;28;20053;-77
2023/04/20 10:23:04;;;;;;;12.30;6.45;;;8.30;91.80;;;;;;5017595;28;20103;-77
2023/04/20 10:25:30;;;;;;;9.32;6.10;;;8.50;91.30;;;;;;5023834;28;20064;-78
2023/04/20 10:27:58;;;;;;;11.27;6.20;;;8.40;90.50;;;;;;5015657;28;20053;-77
2023/04/20 10:30:25;;;;;;;8.90;6.13;;;8.30;90.50;;;;;;5018235;28;20040;-80
2023/04/20 10:33:08;;;;;;;11.70;6.25;;;8.30;90.10;;;;;;5019235;28;20059;-77
2023/04/20 10:35:41;;;;;;;12.98;6.95;;;8.40;90.80;;;;;;5012429;28;20030;-74
2023/04/20 10:38:09;;;;;;;9.35;5.53;;;8.40;90.10;;;;;;5003894;28;20415;-74
2023/04/20 10:40:34;;;;;;;11.32;6.22;;;8.60;90.40;;;;;;5002872;28;20045;-77
2023/04/20 10:43:00;;;;;;;12.30;6.20;;;8.90;90.20;;;;;;5008518;28;20022;-77
2023/04/20 10:45:37;;;;;;;12.30;6.07;;;8.90;89.30;;;;;;4999782;28;20037;-76
2023/04/20 10:48:09;;;;;;;9.48;5.30;;;9.10;88.40;;;;;;4997429;28;20335;-77
2023/04/20 10:50:35;;;;;;;10.27;5.70;;;9.50;88.60;;;;;;5003148;28;20231;-77
2023/04/20 10:53:01;;;;;;;9.02;5.30;;;9.70;87.80;;;;;;4999130;28;20091;-77
2023/04/20 10:55:27;;;;;;;11.35;5.65;;;9.70;87.60;;;;;;4999545;28;20021;-77
2023/04/20 10:57:52;;;;;;;9.23;5.28;;;10.00;87.20;;;;;;5000398;28;20100;-77
2023/04/20 11:00:20;;;;;;;9.52;5.55;;;10.10;86.50;;;;;;5001400;28;20883;-77
2023/04/20 11:02:53;;;;;;;10.70;5.60;;;10.10;85.40;;;;;;5013594;28;20037;-78
2023/04/20 11:05:20;;;;;;;8.15;5.03;;;9.70;84.90;;;;;;5016987;28;20100;-75
2023/04/20 11:07:56;;;;;;;9.40;5.38;;;9.90;85.80;;;;;;5011023;28;20387;-75
2023/04/20 11:10:24;;;;;;;10.02;5.25;;;9.80;85.60;;;;;;5014374;28;20074;-76
2023/04/20 11:12:50;;;;;;;9.23;5.25;;;10.10;85.60;;;;;;5031140;28;20052;-78
2023/04/20 11:15:17;;;;;;;7.85;5.22;;;10.60;84.40;;;;;;5018733;28;20032;-77
2023/04/20 11:17:42;;;;;;;10.10;5.13;;;10.90;83.40;;;;;;5007075;28;20044;-80
2023/04/20 11:20:13;;;;;;;10.45;4.97;;;11.20;83.20;;;;;;5012610;28;20495;-77
2023/04/20 11:22:40;;;;;;;10.65;5.13;;;11.10;81.70;;;;;;5000940;28;20156;-75
2023/04/20 11:25:10;;;;;;;7.47;4.40;;;11.20;81.10;;;;;;5008773;28;20404;-75
2023/04/20 11:27:37;;;;;;;8.77;5.13;;;11.40;81.20;;;;;;5010106;28;20045;-75
2023/04/20 11:30:04;;;;;;;7.70;4.78;;;11.00;80.10;;;;;;5010946;28;20112;-79
2023/04/20 11:32:34;;;;;;;8.10;4.55;;;11.60;80.60;;;;;;5005078;28;20038;-78
2023/04/20 11:35:01;;;;;;;8.57;4.80;;;11.90;80.50;;;;;;4999763;28;20068;-78
2023/04/20 11:37:27;;;;;;;7.93;4.68;;;11.90;78.60;;;;;;4995834;28;20427;-78
2023/04/20 11:40:06;;;;;;;9.07;4.53;;;11.70;78.90;;;;;;5001516;28;20056;-77
2023/04/20 11:42:31;;;;;;;8.40;4.70;;;11.70;78.80;;;;;;5001035;28;20125;-78
2023/04/20 11:44:58;;;;;;;6.65;4.20;;;11.60;78.50;;;;;;5009355;28;20113;-76
2023/04/20 11:47:23;;;;;;;9.50;4.63;;;11.60;77.30;;;;;;5009668;28;20417;-78
2023/04/20 11:49:49;;;;;;;7.25;4.55;;;11.10;78.50;;;;;;5004084;28;20029;-77
2023/04/20 11:52:15;;;;;;;9.75;4.50;;;11.20;79.00;;;;;;5016629;28;20097;-76
2023/04/20 11:54:40;;;;;;;7.60;4.50;;;10.90;78.70;;;;;;5009926;28;20022;-76
2023/04/20 11:57:06;;;;;;;6.70;3.97;;;10.90;79.80;;;;;;5017905;28;20030;-76
2023/04/20 11:59:31;;;;;;;7.72;4.45;;;10.80;80.40;;;;;;5011316;28;20122;-77
2023/04/20 12:01:57;;;;;;;6.70;4.30;;;10.80;80.60;;;;;;5016217;28;20111;-77
2023/04/20 12:04:22;;;;;;;6.95;4.15;;;10.60;81.20;;;;;;5012941;28;20422;-77
2023/04/20 12:06:48;;;;;;;7.32;4.15;;;10.50;81.00;;;;;;5015369;28;20485;-76
2023/04/20 12:09:14;;;;;;;6.85;4.57;;;10.50;82.00;;;;;;5006992;28;20030;-77
2023/04/20 12:11:39;;;;;;;8.75;4.40;;;10.50;82.30;;;;;;5016041;28;20021;-77
2023/04/20 12:14:05;;;;;;;9.45;4.70;;;10.40;82.20;;;;;;5019701;28;20032;-76
2023/04/20 12:16:30;;;;;;;11.30;4.53;;;10.30;82.00;;;;;;5010900;28;20030;-78
2023/04/20 12:18:56;;;;;;;10.00;4.38;;;10.40;82.80;;;;;;5001262;28;20347;-78
2023/04/20 12:21:21;;;;;;;9.63;4.97;;;10.50;82.40;;;;;;4996383;28;20141;-78
2023/04/20 12:23:49;;;;;;;7.50;4.18;;;10.30;82.60;;;;;;4990614;28;20033;-77
2023/04/20 12:26:15;;;;;;;8.90;4.78;;;10.10;83.80;;;;;;5001517;28;20053;-79
2023/04/20 12:28:41;;;;;;;8.38;5.10;;;10.10;83.50;;;;;;4998439;28;20155;-78
2023/04/20 12:31:06;;;;;;;7.57;4.53;;;10.20;83.40;;;;;;5000591;28;20042;-78
2023/04/20 12:33:32;;;;;;;9.05;4.30;;;10.40;83.80;;;;;;5005151;28;20475;-78
2023/04/20 12:35:57;;;;;;;9.18;4.25;;;10.60;83.30;;;;;;5002064;28;20117;-79
2023/04/20 12:38:23;;;;;;;8.15;5.13;;;10.60;83.70;;;;;;4994216;28;20230;-78
2023/04/20 12:40:48;;;;;;;7.93;4.47;;;10.60;83.10;;;;;;5004654;28;20092;-79
2023/04/20 12:43:14;;;;;;;8.10;4.50;;;10.60;83.30;;;;;;5001646;28;20041;-79
2023/04/20 12:45:40;;;;;;;7.72;4.80;;;10.70;84.40;;;;;;5000649;28;20032;-78